Time;durP1;ratioP1;P1;durP2;ratioP2;P2;SDS_P1;SDS_P2;PMS_P1;PMS_P2;Temp;Humidity;BMP_temperature;BMP_pressure;BME280_temperature;BME280_humidity;BME280_pressure;Samples;Min_cycle;Max_cycle;Signal;HPM_P1;HPM_P2
2022/04/26 03:38:07;;;;;;;9.05;2.10;;;;;;;8.74;100.00;101897.56;5071939;28;20147;-82
2022/04/26 03:40:34;;;;;;;8.10;2.28;;;;;;;8.85;100.00;101905.28;5070588;28;20127;-82
2022/04/26 03:43:02;;;;;;;10.85;2.80;;;;;;;8.11;100.00;101865.13;5071391;28;20052;-82
2022/04/26 03:45:29;;;;;;;6.82;2.47;;;;;;;8.52;100.00;101883.91;5071402;28;20048;-82
2022/04/26 03:47:55;;;;;;;8.90;2.60;;;;;;;8.44;100.00;101883.97;5070515;28;20057;-83
2022/04/26 03:50:22;;;;;;;9.77;2.28;;;;;;;8.58;100.00;101902.09;5069257;28;20045;-82
2022/04/26 03:52:52;;;;;;;6.55;2.20;;;;;;;8.42;100.00;101901.38;5069349;28;20045;-82
2022/04/26 03:55:24;;;;;;;5.97;2.10;;;;;;;8.36;100.00;101867.50;5071821;28;20076;-84
2022/04/26 03:57:51;;;;;;;9.57;2.20;;;;;;;8.18;100.00;101897.25;5070578;28;20414;-83
2022/04/26 04:00:18;;;;;;;6.57;2.22;;;;;;;8.21;100.00;101865.91;5070311;28;20041;-84
2022/04/26 04:02:45;;;;;;;11.27;2.03;;;;;;;8.57;100.00;101891.66;5070409;28;20105;-84
2022/04/26 04:05:12;;;;;;;6.05;2.05;;;;;;;8.52;100.00;101889.13;5070148;28;20457;-84
2022/04/26 04:07:39;;;;;;;7.35;2.17;;;;;;;8.27;100.00;101860.63;5062056;28;20471;-84
2022/04/26 04:10:06;;;;;;;4.70;1.85;;;;;;;8.22;100.00;101848.50;5064984;28;20054;-84
2022/04/26 04:12:33;;;;;;;8.75;2.40;;;;;;;8.27;100.00;101880.63;5072198;28;20051;-84
2022/04/26 04:15:00;;;;;;;10.18;2.60;;;;;;;8.30;100.00;101901.47;5074227;28;20056;-84
2022/04/26 04:17:27;;;;;;;6.97;2.33;;;;;;;8.67;100.00;101911.56;5074685;28;20127;-84
2022/04/26 04:19:54;;;;;;;8.98;2.25;;;;;;;8.60;100.00;101920.34;5073043;28;20052;-84
2022/04/26 04:22:21;;;;;;;8.50;2.17;;;;;;;8.36;100.00;101904.03;5063039;28;20053;-84
2022/04/26 04:24:48;;;;;;;8.02;2.20;;;;;;;7.97;100.00;101854.81;5062933;28;20048;-84
2022/04/26 04:27:15;;;;;;;6.22;1.83;;;;;;;8.22;100.00;101870.25;5074501;28;20070;-84
2022/04/26 04:29:44;;;;;;;7.13;2.28;;;;;;;8.76;100.00;101894.94;5072874;28;20098;-83
2022/04/26 04:32:11;;;;;;;7.93;2.30;;;;;;;8.77;100.00;101936.72;5074545;28;20448;-84
2022/04/26 04:34:38;;;;;;;5.55;2.50;;;;;;;8.92;100.00;101918.25;5075870;28;20688;-84
2022/04/26 04:37:04;;;;;;;6.85;2.60;;;;;;;8.83;100.00;101900.06;5073675;28;20057;-84
2022/04/26 04:39:31;;;;;;;6.95;1.75;;;;;;;8.74;100.00;101900.19;5073116;28;20044;-84
2022/04/26 04:41:59;;;;;;;8.98;2.50;;;;;;;8.35;100.00;101907.50;5069613;28;20056;-84
2022/04/26 04:44:26;;;;;;;7.38;2.47;;;;;;;8.60;100.00;101892.50;5054548;28;20083;-84
2022/04/26 04:46:54;;;;;;;10.15;2.55;;;;;;;8.64;100.00;101891.59;5066093;28;20067;-84
2022/04/26 04:49:23;;;;;;;5.95;2.00;;;;;;;8.45;100.00;101905.72;5074318;28;20048;-84
2022/04/26 04:51:49;;;;;;;7.45;1.92;;;;;;;8.33;100.00;101872.75;5072910;28;20041;-84
2022/04/26 04:54:16;;;;;;;5.97;2.10;;;;;;;8.66;100.00;101918.56;5074347;28;20060;-85
2022/04/26 04:56:43;;;;;;;8.27;2.00;;;;;;;8.83;100.00;101925.31;5075354;28;20411;-85
2022/04/26 04:59:10;;;;;;;8.68;2.47;;;;;;;8.74;100.00;101921.06;5074083;28;20462;-85
2022/04/26 05:01:36;;;;;;;9.82;2.33;;;;;;;8.45;100.00;101927.47;5073423;28;20056;-84
2022/04/26 05:04:04;;;;;;;8.45;2.65;;;;;;;8.15;100.00;101879.88;5073056;28;20083;-84
2022/04/26 05:06:30;;;;;;;9.30;2.65;;;;;;;8.25;100.00;101942.41;5073409;28;20056;-85
2022/04/26 05:08:57;;;;;;;9.15;2.53;;;;;;;8.29;100.00;101907.59;5074799;28;20044;-85
2022/04/26 05:11:24;;;;;;;8.23;2.00;;;;;;;8.32;100.00;101904.94;5073217;28;20070;-85
2022/04/26 05:13:54;;;;;;;7.35;2.30;;;;;;;8.48;100.00;101935.28;5053178;28;20052;-85
2022/04/26 05:16:20;;;;;;;8.80;2.85;;;;;;;8.50;100.00;101919.59;5052132;28;20056;-84
2022/04/26 05:18:47;;;;;;;7.93;2.70;;;;;;;8.35;100.00;101910.13;5051904;28;20053;-84
2022/04/26 05:21:14;;;;;;;10.35;2.80;;;;;;;8.46;100.00;101915.28;5065948;28;20048;-84
2022/04/26 05:26:27;;;;;;;6.43;2.50;;;;;;;8.30;100.00;101901.47;5073817;28;20064;-85
2022/04/26 05:28:53;;;;;;;6.07;2.28;;;;;;;8.56;100.00;101909.09;5066253;28;20056;-85
2022/04/26 05:31:20;;;;;;;8.20;2.38;;;;;;;8.40;100.00;101907.47;5066761;28;20474;-85
2022/04/26 05:33:48;;;;;;;6.90;2.47;;;;;;;8.47;100.00;101897.00;5063788;28;20127;-85
2022/04/26 05:36:14;;;;;;;7.90;2.05;;;;;;;8.45;100.00;101913.56;5096181;28;20136;-85
2022/04/26 05:38:41;;;;;;;9.80;2.95;;;;;;;8.60;100.00;101952.53;5065954;28;20052;-85
2022/04/26 05:41:08;;;;;;;11.55;2.65;;;;;;;8.73;100.00;101967.22;5071546;28;20049;-84
2022/04/26 05:43:35;;;;;;;7.95;2.30;;;;;;;8.98;100.00;101912.09;5061225;28;20052;-85
2022/04/26 05:46:01;;;;;;;11.10;2.80;;;;;;;8.90;100.00;101942.66;5062036;28;20479;-85
2022/04/26 05:48:28;;;;;;;6.85;2.10;;;;;;;8.88;100.00;101954.88;5066749;28;20115;-85
2022/04/26 05:50:57;;;;;;;12.00;3.20;;;;;;;8.79;100.00;101934.09;5067647;28;20047;-85
2022/04/26 05:53:24;;;;;;;7.70;2.20;;;;;;;9.17;100.00;101956.28;5066170;28;20167;-86
2022/04/26 05:55:51;;;;;;;8.63;2.67;;;;;;;8.70;100.00;101943.75;5061301;28;20554;-86
2022/04/26 05:58:18;;;;;;;8.27;2.67;;;;;;;8.82;100.00;101940.13;5062424;28;20053;-84
2022/04/26 06:00:44;;;;;;;9.63;2.38;;;;;;;8.88;100.00;101955.72;5072671;28;20398;-83
2022/04/26 06:03:11;;;;;;;12.10;2.80;;;;;;;9.03;100.00;101959.03;5069925;28;20044;-85
2022/04/26 06:05:38;;;;;;;8.38;2.67;;;;;;;9.10;100.00;101935.47;5060800;28;20099;-85
2022/04/26 06:08:07;;;;;;;9.50;2.58;;;;;;;8.74;100.00;101940.19;5059700;28;20135;-85
2022/04/26 06:10:36;;;;;;;16.30;3.30;;;;;;;8.78;100.00;101951.47;5059985;28;20166;-84
2022/04/26 06:13:05;;;;;;;7.00;2.13;;;;;;;8.91;100.00;101960.94;5054105;28;211374;-85
2022/04/26 06:15:32;;;;;;;16.30;3.42;;;;;;;8.63;100.00;101943.81;5082033;28;20426;-86
2022/04/26 06:17:59;;;;;;;9.57;2.28;;;;;;;9.17;100.00;101941.47;5067819;28;20044;-86
2022/04/26 06:20:25;;;;;;;9.18;1.90;;;;;;;9.35;100.00;101979.59;5068611;28;20040;-84
2022/04/26 06:22:55;;;;;;;7.55;2.10;;;;;;;9.04;100.00;101930.28;5066985;28;20049;-83
2022/04/26 06:25:22;;;;;;;11.82;2.38;;;;;;;8.86;100.00;101935.75;5066912;28;20491;-85
2022/04/26 06:27:49;;;;;;;7.65;2.10;;;;;;;8.84;100.00;101919.22;5091557;28;20053;-83
2022/04/26 06:30:22;;;;;;;9.63;2.70;;;;;;;9.17;100.00;101937.97;5067769;28;20044;-84
2022/04/26 06:32:48;;;;;;;8.48;2.28;;;;;;;8.74;100.00;101948.03;5057651;28;20056;-85
2022/04/26 06:35:15;;;;;;;9.85;2.60;;;;;;;9.18;100.00;101947.56;5059489;28;20049;-86
2022/04/26 06:37:42;;;;;;;9.25;2.13;;;;;;;9.24;100.00;101953.59;5070185;28;20048;-86
2022/04/26 06:40:09;;;;;;;9.63;2.60;;;;;;;9.06;100.00;101967.72;5071506;28;20128;-85
2022/04/26 06:42:35;;;;;;;11.00;2.22;;;;;;;8.84;100.00;101946.22;5074074;28;20044;-85
2022/04/26 06:45:02;;;;;;;11.45;2.80;;;;;;;8.68;100.00;102000.34;5062833;28;20071;-85
2022/04/26 06:47:29;;;;;;;9.32;2.40;;;;;;;8.65;100.00;101931.63;5061888;28;20051;-85
2022/04/26 06:49:56;;;;;;;9.82;2.58;;;;;;;8.77;100.00;101946.31;5071626;28;20045;-86
2022/04/26 06:52:23;;;;;;;7.57;2.13;;;;;;;8.80;100.00;101965.41;5072707;28;20059;-85
2022/04/26 06:54:50;;;;;;;5.45;2.15;;;;;;;8.90;100.00;101953.97;5068207;28;20049;-85
2022/04/26 06:57:19;;;;;;;11.93;3.20;;;;;;;9.07;100.00;101973.81;5063981;28;20049;-84
2022/04/26 06:59:46;;;;;;;8.48;2.25;;;;;;;8.87;100.00;101946.19;5071727;28;20044;-85
2022/04/26 07:02:13;;;;;;;10.80;2.28;;;;;;;9.17;100.00;101941.47;5073702;28;20054;-85
2022/04/26 07:04:40;;;;;;;6.53;2.03;;;;;;;9.07;100.00;101932.03;5073699;28;20052;-85
2022/04/26 07:07:08;;;;;;;8.13;2.20;;;;;;;9.11;100.00;101947.63;5072502;28;20040;-84
2022/04/26 07:09:36;;;;;;;10.15;3.58;;;;;;;8.88;100.00;101947.03;5073704;28;20482;-84
2022/04/26 07:12:04;;;;;;;9.25;2.30;;;;;;;9.06;100.00;101993.84;5073958;28;20139;-84
2022/04/26 07:14:30;;;;;;;10.10;2.60;;;;;;;8.78;100.00;101948.88;5072373;28;20055;-85
2022/04/26 07:17:00;;;;;;;9.68;2.20;;;;;;;8.67;100.00;101935.06;5072565;28;20045;-85
2022/04/26 07:19:27;;;;;;;7.18;2.00;;;;;;;8.96;100.00;101950.44;5071156;28;20392;-83
2022/04/26 07:21:53;;;;;;;9.43;2.15;;;;;;;9.26;100.00;101961.38;5072285;28;20041;-86
2022/04/26 07:24:31;;;;;;;10.73;2.65;;;;;;;8.92;100.00;101954.84;5073015;28;20509;-85
2022/04/26 07:26:58;;;;;;;12.13;2.13;;;;;;;9.23;100.00;102001.50;5073487;28;20048;-85
2022/04/26 07:29:25;;;;;;;8.73;2.30;;;;;;;9.47;100.00;101966.34;5072784;28;20052;-85
2022/04/26 07:31:52;;;;;;;5.65;2.00;;;;;;;9.41;100.00;101944.66;5073197;28;20048;-87
2022/04/26 07:34:23;;;;;;;7.35;2.10;;;;;;;9.29;100.00;101977.03;5071870;28;20478;-85
2022/04/26 07:37:02;;;;;;;9.82;2.45;;;;;;;9.74;100.00;101985.16;5071528;28;20055;-85
2022/04/26 07:39:30;;;;;;;6.07;1.90;;;;;;;9.82;100.00;102019.06;5072131;28;20529;-84
2022/04/26 07:41:58;;;;;;;9.30;1.95;;;;;;;9.69;100.00;101969.53;5072302;28;20044;-85
2022/04/26 07:44:25;;;;;;;8.20;3.15;;;;;;;10.11;100.00;101962.78;5072611;28;20287;-85
2022/04/26 07:46:53;;;;;;;11.25;1.70;;;;;;;9.49;100.00;101963.69;5071883;28;20139;-85
2022/04/26 07:49:23;;;;;;;5.30;1.98;;;;;;;9.62;100.00;101991.41;5072169;28;20074;-85
2022/04/26 07:51:51;;;;;;;16.95;3.40;;;;;;;9.84;100.00;102022.50;5072596;28;20124;-85
2022/04/26 07:54:18;;;;;;;7.22;2.55;;;;;;;9.60;100.00;102006.28;5072108;28;20146;-86
2022/04/26 07:56:46;;;;;;;9.02;2.05;;;;;;;9.48;100.00;101998.59;5072895;28;20048;-85
2022/04/26 07:59:14;;;;;;;10.32;2.10;;;;;;;9.16;100.00;102001.59;5071712;28;20045;-85
2022/04/26 08:01:42;;;;;;;7.45;2.15;;;;;;;9.23;100.00;102030.25;5071565;28;20041;-85
2022/04/26 08:04:09;;;;;;;8.13;2.08;;;;;;;8.66;100.00;101976.00;5073107;28;20482;-85
2022/04/26 08:06:35;;;;;;;9.27;2.30;;;;;;;9.05;100.00;101986.03;5072772;28;20479;-85
2022/04/26 08:09:02;;;;;;;11.32;2.38;;;;;;;9.24;100.00;101992.78;5071880;28;20449;-85
2022/04/26 08:11:29;;;;;;;7.80;2.22;;;;;;;8.80;100.00;101974.97;5071515;28;20049;-85
2022/04/26 08:13:56;;;;;;;7.68;2.00;;;;;;;8.97;100.00;101996.56;5072780;28;20052;-86
2022/04/26 08:16:23;;;;;;;7.07;2.88;;;;;;;8.77;100.00;101988.09;5071879;28;20063;-85
2022/04/26 08:18:51;;;;;;;6.68;2.05;;;;;;;9.15;100.00;101986.78;5072062;28;20395;-85
2022/04/26 08:21:18;;;;;;;8.73;2.08;;;;;;;9.73;100.00;101999.13;5071655;28;20041;-86
2022/04/26 08:29:18;;;;;;;8.82;2.50;;;;;;;9.82;100.00;102016.44;5052839;28;20049;-85
2022/04/26 08:31:45;;;;;;;7.80;1.90;;;;;;;10.28;100.00;102057.63;5070197;28;20498;-85
2022/04/26 08:34:12;;;;;;;9.02;2.17;;;;;;;10.21;100.00;101986.19;5071727;28;20056;-85
2022/04/26 08:36:39;;;;;;;6.95;1.83;;;;;;;10.64;100.00;101993.34;5073017;28;20126;-84
2022/04/26 08:39:06;;;;;;;4.75;1.58;;;;;;;10.52;100.00;101977.84;5072537;28;20059;-85
2022/04/26 08:41:34;;;;;;;7.93;1.90;;;;;;;10.58;100.00;101990.81;5068586;28;20045;-86
2022/04/26 08:44:01;;;;;;;6.85;1.80;;;;;;;10.39;100.00;102018.22;5052506;28;20049;-85
2022/04/26 08:50:59;;;;;;;6.40;1.83;;;;;;;10.58;100.00;102011.78;5070641;28;20490;-85
2022/04/26 08:52:03;;;;;;;9.48;1.60;;;;;;;11.52;100.00;102056.34;5063319;28;20044;-85
2022/04/26 08:54:31;;;;;;;13.23;2.83;;;;;;;10.88;100.00;102011.28;5070797;28;20045;-85
2022/04/26 08:56:58;;;;;;;10.05;2.20;;;;;;;11.42;100.00;102034.69;5058915;28;20049;-86
2022/04/26 08:59:26;;;;;;;4.78;1.40;;;;;;;11.74;100.00;102036.63;5058797;28;20048;-88
2022/04/26 09:02:28;;;;;;;6.35;1.83;;;;;;;11.85;100.00;102059.16;5072354;28;20140;-88
2022/04/26 09:05:01;;;;;;;8.55;1.90;;;;;;;11.55;100.00;102072.88;5031602;28;20046;-89
2022/04/26 09:07:32;;;;;;;7.53;2.10;;;;;;;11.97;100.00;102069.44;5052779;28;20053;-83
2022/04/26 09:10:11;;;;;;;10.07;2.20;;;;;;;11.99;100.00;102038.75;5063520;28;20645;-84
2022/04/26 09:13:04;;;;;;;11.00;1.85;;;;;;;12.10;100.00;102072.63;5064982;28;20052;-85
2022/04/26 09:15:37;;;;;;;;;;;;;;;12.29;100.00;102075.72;5075175;28;20052;-85
2022/04/26 09:18:15;;;;;;;11.55;2.03;;;;;;;12.88;98.86;102041.81;5073134;28;19920;-85
2022/04/26 09:20:44;;;;;;;8.23;1.70;;;;;;;12.28;98.54;102047.72;5059895;28;20048;-85
2022/04/26 09:23:15;;;;;;;9.07;1.80;;;;;;;12.55;92.72;102064.56;5067180;28;20059;-83
2022/04/26 09:25:42;;;;;;;11.63;1.77;;;;;;;12.02;92.70;102064.06;5073305;28;20079;-83
2022/04/26 09:28:19;;;;;;;5.55;1.40;;;;;;;12.20;88.87;102063.66;5067403;28;20062;-84
2022/04/26 09:30:45;;;;;;;5.45;1.35;;;;;;;11.44;83.89;102016.28;5071586;28;20135;-85
2022/04/26 09:33:29;;;;;;;7.28;1.30;;;;;;;12.27;82.99;102081.00;5066495;28;20052;-84
2022/04/26 09:36:05;;;;;;;7.55;1.73;;;;;;;12.22;80.18;102025.09;5070216;28;20060;-84
2022/04/26 09:38:33;;;;;;;5.50;1.30;;;;;;;11.54;77.86;102042.31;5071691;28;20127;-84
2022/04/26 09:41:12;;;;;;;8.65;2.08;;;;;;;11.83;82.45;102079.31;5065706;28;20052;-85
2022/04/26 09:43:39;;;;;;;4.78;1.25;;;;;;;12.24;79.86;102083.69;5072941;28;20478;-84
2022/04/26 09:46:07;;;;;;;6.72;1.15;;;;;;;12.52;78.55;102073.38;5069967;28;20059;-85
2022/04/26 09:48:36;;;;;;;4.95;1.15;;;;;;;11.98;76.97;102050.13;5070775;28;20046;-84
2022/04/26 09:51:04;;;;;;;6.55;1.30;;;;;;;12.27;75.74;102086.25;5070866;28;20043;-84
2022/04/26 09:53:32;;;;;;;7.68;1.67;;;;;;;12.27;75.81;102062.59;5072291;28;20150;-84
2022/04/26 09:56:01;;;;;;;4.97;1.30;;;;;;;12.50;72.84;102088.31;5072266;28;20538;-84
2022/04/26 09:58:29;;;;;;;4.75;1.33;;;;;;;12.50;73.97;102092.69;5071895;28;20398;-84
2022/04/26 10:00:58;;;;;;;7.22;1.30;;;;;;;11.52;75.00;102059.81;5072248;28;20059;-84
2022/04/26 10:03:35;;;;;;;4.72;1.40;;;;;;;11.38;76.53;102064.47;5069368;28;20152;-85
2022/04/26 10:06:05;;;;;;;4.82;1.27;;;;;;;11.68;74.02;102072.63;5064250;28;20426;-85
2022/04/26 10:08:35;;;;;;;5.00;1.20;;;;;;;12.14;73.98;102101.38;5070782;28;20475;-85
2022/04/26 10:11:03;;;;;;;3.70;1.38;;;;;;;12.01;71.83;102068.44;5060563;28;20055;-85
2022/04/26 10:13:39;;;;;;;6.00;1.40;;;;;;;12.13;70.04;102078.69;5072294;28;20070;-85
2022/04/26 10:16:17;;;;;;;3.00;1.23;;;;;;;12.59;68.54;102096.88;5072627;28;20063;-85
2022/04/26 10:18:45;;;;;;;3.42;1.05;;;;;;;12.58;67.38;102089.91;5072344;28;20409;-85
2022/04/26 10:21:40;;;;;;;3.28;0.90;;;;;;;12.70;64.43;102102.75;5070836;28;20044;-85
2022/04/26 10:24:19;;;;;;;3.05;1.00;;;;;;;12.25;65.86;102038.16;5051463;28;20045;-84
2022/04/26 10:26:47;;;;;;;5.50;1.27;;;;;;;12.20;64.19;102073.28;5058503;28;20048;-84
2022/04/26 10:29:20;;;;;;;9.63;1.30;;;;;;;12.65;66.14;102092.31;5072385;28;20635;-85
2022/04/26 10:31:59;;;;;;;7.28;1.23;;;;;;;13.15;65.59;102093.69;5070917;28;20045;-85
2022/04/26 10:34:31;;;;;;;4.00;1.00;;;;;;;13.36;66.52;102084.41;5069608;28;20496;-84
2022/04/26 10:37:11;;;;;;;6.23;1.13;;;;;;;13.50;67.60;102090.13;5071552;28;20144;-85
2022/04/26 10:40:01;;;;;;;7.93;2.55;;;;;;;13.13;67.97;102091.09;5053668;28;20289;-84
2022/04/26 10:42:30;;;;;;;7.55;1.73;;;;;;;13.02;69.39;102045.84;5055263;28;20055;-85
2022/04/26 10:45:11;;;;;;;5.10;1.27;;;;;;;13.66;68.37;102095.81;5051902;28;20052;-84
2022/04/26 10:47:40;;;;;;;8.88;1.23;;;;;;;13.65;66.04;102083.56;5064918;28;20051;-84
2022/04/26 10:50:08;;;;;;;3.00;1.00;;;;;;;12.98;63.13;102083.63;5067621;28;20064;-84
2022/04/26 10:52:40;;;;;;;5.10;1.00;;;;;;;12.91;64.04;102103.97;5068483;28;20560;-84
2022/04/26 10:55:10;;;;;;;2.47;0.80;;;;;;;13.36;66.60;102100.19;5072227;28;20136;-84
2022/04/26 10:57:42;;;;;;;4.57;1.15;;;;;;;12.91;71.53;102096.94;5070353;28;20063;-84
2022/04/26 11:00:11;;;;;;;3.80;1.10;;;;;;;12.62;76.03;102112.56;5070396;28;20047;-84
2022/04/26 11:02:40;;;;;;;4.32;1.25;;;;;;;12.80;76.99;102088.47;5072390;28;20489;-84
2022/04/26 11:05:23;;;;;;;5.70;1.30;;;;;;;12.43;80.69;102086.75;5072708;28;20048;-85
2022/04/26 11:07:50;;;;;;;8.43;1.43;;;;;;;12.62;83.99;102113.41;5067048;28;20198;-85
2022/04/26 11:10:23;;;;;;;5.32;1.48;;;;;;;12.24;85.12;102095.94;5069529;28;20044;-84
2022/04/26 11:12:51;;;;;;;6.13;1.55;;;;;;;12.45;87.29;102108.59;5071172;28;20474;-84
2022/04/26 11:15:23;;;;;;;6.00;1.33;;;;;;;12.50;86.30;102118.97;5071207;28;20098;-84
2022/04/26 11:17:51;;;;;;;6.38;1.48;;;;;;;11.99;92.95;102117.50;5070273;28;20058;-85
2022/04/26 11:20:20;;;;;;;6.95;1.73;;;;;;;11.82;98.21;102122.19;5070485;28;20051;-84
2022/04/26 11:22:55;;;;;;;9.68;1.40;;;;;;;11.76;100.00;102110.94;5062245;28;20083;-85
2022/04/26 11:28:17;;;;;;;6.22;1.50;;;;;;;11.57;100.00;102092.06;5051501;28;20049;-84
2022/04/26 11:30:47;;;;;;;5.60;1.50;;;;;;;11.33;95.42;102111.78;5068859;28;20053;-85
2022/04/26 11:33:18;;;;;;;6.20;1.08;;;;;;;10.96;100.00;102108.94;5058460;28;20061;-84
2022/04/26 11:36:00;;;;;;;5.63;1.13;;;;;;;10.78;100.00;102111.00;5102035;28;20106;-85
2022/04/26 11:38:28;;;;;;;4.70;1.13;;;;;;;11.06;100.00;102084.31;5070560;28;20098;-84
2022/04/26 11:41:00;;;;;;;3.55;1.08;;;;;;;10.63;100.00;102098.16;5069750;28;20041;-84
2022/04/26 11:43:33;;;;;;;5.43;1.33;;;;;;;10.95;100.00;102120.34;5070954;28;20751;-83
2022/04/26 11:46:02;;;;;;;3.88;1.02;;;;;;;11.30;100.00;102145.06;5071825;28;20277;-84
2022/04/26 11:48:34;;;;;;;4.53;1.10;;;;;;;11.57;100.00;102138.44;5071100;28;20505;-84
2022/04/26 11:51:02;;;;;;;4.15;1.17;;;;;;;11.78;100.00;102143.25;5071559;28;20045;-85
2022/04/26 11:53:31;;;;;;;2.47;1.10;;;;;;;11.84;97.51;102095.00;5072078;28;20139;-85
2022/04/26 11:56:03;;;;;;;2.55;0.95;;;;;;;11.90;98.60;102154.41;5071192;28;20118;-84
2022/04/26 11:58:29;;;;;;;2.50;1.15;;;;;;;12.20;96.28;102152.94;5070479;28;20135;-84
2022/04/26 12:01:11;;;;;;;3.60;1.00;;;;;;;11.92;98.33;102148.25;5067202;28;20048;-85
2022/04/26 12:03:49;;;;;;;3.80;0.95;;;;;;;11.74;99.09;102107.47;5070233;28;20497;-85
2022/04/26 12:06:35;;;;;;;8.23;1.10;;;;;;;11.94;98.23;102169.22;5071370;28;20500;-85
2022/04/26 12:09:04;;;;;;;3.33;1.10;;;;;;;11.66;100.00;102159.22;5071038;28;20475;-85
2022/04/26 12:11:36;;;;;;;4.55;1.40;;;;;;;11.16;100.00;102135.69;5067050;28;20106;-84
2022/04/26 12:14:08;;;;;;;5.57;1.13;;;;;;;11.07;100.00;102125.38;5070377;28;20122;-85
2022/04/26 12:16:37;;;;;;;2.33;1.00;;;;;;;11.56;100.00;102162.91;5071485;28;20481;-85
2022/04/26 12:19:04;;;;;;;3.65;1.10;;;;;;;11.08;100.00;102134.09;5070658;28;20056;-85
2022/04/26 12:21:48;;;;;;;4.05;1.00;;;;;;;11.67;100.00;102173.22;5071064;28;20383;-85
2022/04/26 12:24:21;;;;;;;7.47;1.77;;;;;;;10.58;100.00;102127.03;5064114;28;20405;-85
2022/04/26 12:27:19;;;;;;;6.68;1.40;;;;;;;11.24;100.00;102164.38;5071320;28;20056;-85
2022/04/26 12:29:48;;;;;;;11.23;1.52;;;;;;;11.03;100.00;102128.94;5053106;28;20049;-84
2022/04/26 12:32:17;;;;;;;8.48;1.98;;;;;;;11.29;100.00;102159.91;5073449;28;20048;-85
2022/04/26 12:34:58;;;;;;;5.75;1.30;;;;;;;11.07;100.00;102137.63;5075055;28;20131;-85
2022/04/26 12:37:31;;;;;;;9.20;1.52;;;;;;;11.44;100.00;102192.88;5075589;28;20048;-85
2022/04/26 12:40:05;;;;;;;18.42;2.47;;;;;;;11.26;100.00;102146.00;5073500;28;20064;-84
2022/04/26 12:42:39;;;;;;;13.80;1.48;;;;;;;11.49;100.00;102140.31;5075201;28;20044;-85
2022/04/26 12:45:23;;;;;;;7.57;2.20;;;;;;;11.78;100.00;102152.88;5070381;28;20470;-85
2022/04/26 12:51:20;;;;;;;8.40;1.50;;;;;;;12.48;100.00;102183.81;5074504;28;20508;-85
2022/04/26 12:54:15;;;;;;;5.65;1.23;;;;;;;12.10;100.00;102196.88;5074303;28;20044;-85
2022/04/26 12:57:03;;;;;;;4.43;1.40;;;;;;;12.04;100.00;102175.13;5073506;28;20084;-84
2022/04/26 12:59:38;;;;;;;5.25;1.50;;;;;;;11.74;100.00;102125.00;5072581;28;20405;-84
2022/04/26 13:02:05;;;;;;;6.40;1.60;;;;;;;11.68;99.45;102143.47;5070114;28;20057;-84
2022/04/26 13:04:32;;;;;;;7.05;1.38;;;;;;;11.91;94.92;102133.38;5072113;28;20052;-84
2022/04/26 13:06:59;;;;;;;5.32;1.30;;;;;;;12.04;94.02;102147.13;5073340;28;20186;-84
2022/04/26 13:09:34;;;;;;;8.80;1.77;;;;;;;12.04;91.63;102176.03;5073795;28;20122;-84
2022/04/26 13:12:01;;;;;;;8.75;1.40;;;;;;;11.95;93.78;102152.56;5073389;28;20045;-84
2022/04/26 13:14:28;;;;;;;7.45;1.48;;;;;;;12.20;94.07;102184.44;5073586;28;20458;-86
2022/04/26 13:17:16;;;;;;;10.70;2.08;;;;;;;11.70;94.80;102160.91;5073448;28;20406;-85
2022/04/26 13:19:42;;;;;;;10.82;1.58;;;;;;;11.70;93.79;102181.88;5072441;28;20052;-85
2022/04/26 13:22:09;;;;;;;7.32;1.48;;;;;;;11.64;94.39;102150.53;5073737;28;20051;-86
2022/04/26 13:24:36;;;;;;;6.65;1.48;;;;;;;11.73;95.95;102175.72;5074154;28;20048;-85
2022/04/26 13:27:04;;;;;;;9.07;2.22;;;;;;;12.10;94.85;102169.78;5073862;28;20048;-85
2022/04/26 13:29:30;;;;;;;4.63;1.42;;;;;;;11.83;94.47;102153.66;5073336;28;20434;-84
2022/04/26 13:31:58;;;;;;;11.90;2.58;;;;;;;11.69;94.04;102153.09;5073493;28;20479;-86
2022/04/26 13:34:25;;;;;;;12.52;1.95;;;;;;;12.31;92.66;102171.94;5068410;28;20049;-85
2022/04/26 13:37:02;;;;;;;6.18;1.58;;;;;;;12.38;89.76;102162.16;5061483;28;20474;-85
2022/04/26 13:39:29;;;;;;;11.13;2.17;;;;;;;11.96;87.74;102144.66;5062489;28;20041;-85
2022/04/26 13:41:56;;;;;;;8.68;1.50;;;;;;;11.72;85.70;102153.00;5074069;28;20080;-86
2022/04/26 13:44:23;;;;;;;6.60;1.45;;;;;;;11.61;86.78;102149.72;5073049;28;20048;-85
2022/04/26 13:46:50;;;;;;;8.65;1.50;;;;;;;11.60;85.66;102175.09;5073328;28;20053;-86
2022/04/26 13:49:17;;;;;;;7.25;1.45;;;;;;;11.61;87.31;102168.09;5074894;28;20380;-85
2022/04/26 13:51:44;;;;;;;7.07;1.48;;;;;;;11.45;83.84;102149.16;5067126;28;20055;-84
2022/04/26 13:54:11;;;;;;;13.25;3.15;;;;;;;11.39;81.64;102166.72;5072057;28;20056;-84
2022/04/26 13:56:37;;;;;;;8.23;1.70;;;;;;;11.13;84.17;102197.78;5069424;28;20044;-84
2022/04/26 13:59:04;;;;;;;9.52;1.90;;;;;;;10.92;80.70;102143.97;5063965;28;20131;-84
2022/04/26 14:01:31;;;;;;;5.60;1.45;;;;;;;11.42;79.55;102162.31;5071306;28;20041;-84
2022/04/26 14:03:58;;;;;;;5.93;1.50;;;;;;;11.56;79.09;102141.94;5074068;28;20466;-84
2022/04/26 14:06:25;;;;;;;12.77;1.95;;;;;;;11.74;78.73;102148.59;5073286;28;20080;-84
2022/04/26 14:08:52;;;;;;;14.85;2.05;;;;;;;11.79;79.70;102165.09;5074460;28;20135;-84
2022/04/26 14:11:21;;;;;;;10.48;1.75;;;;;;;11.65;80.72;102173.25;5072017;28;20478;-84
2022/04/26 14:22:26;;;;;;;13.68;2.40;;;;;;;11.64;91.22;102173.28;5073788;28;20040;-85
2022/04/26 14:24:53;;;;;;;10.10;1.90;;;;;;;11.31;97.12;102175.63;5072904;28;20118;-84
2022/04/26 14:27:20;;;;;;;13.48;2.55;;;;;;;11.44;100.00;102198.13;5073912;28;20056;-84
2022/04/26 14:29:47;;;;;;;20.30;3.13;;;;;;;10.81;100.00;102154.63;5073347;28;20068;-84
2022/04/26 14:32:14;;;;;;;13.65;2.75;;;;;;;10.93;100.00;102145.69;5072948;28;20087;-85
2022/04/26 14:34:42;;;;;;;18.17;2.88;;;;;;;11.43;97.10;102167.53;5073211;28;20490;-84
2022/04/26 14:37:10;;;;;;;10.98;2.72;;;;;;;11.04;96.33;102153.38;5074752;28;20517;-84
2022/04/26 14:39:37;;;;;;;12.43;2.22;;;;;;;11.26;96.56;102177.47;5061473;28;20054;-82
2022/04/26 14:42:05;;;;;;;12.30;2.25;;;;;;;11.42;99.64;102206.91;5071767;28;20478;-83
2022/04/26 14:44:32;;;;;;;12.07;2.47;;;;;;;11.23;100.00;102175.78;5071774;28;20076;-83
2022/04/26 14:46:58;;;;;;;22.33;3.15;;;;;;;10.85;95.50;102185.09;5072046;28;20506;-83
2022/04/26 14:49:25;;;;;;;12.82;2.65;;;;;;;11.07;96.42;102166.44;5071342;28;20052;-83
2022/04/26 14:51:52;;;;;;;10.98;2.40;;;;;;;11.11;97.69;102182.06;5070257;28;20047;-83
2022/04/26 14:54:25;;;;;;;21.83;3.72;;;;;;;11.42;96.43;102199.03;5070340;28;20053;-83
2022/04/26 14:56:52;;;;;;;13.85;2.50;;;;;;;11.47;93.34;102148.22;5069913;28;20500;-83
2022/04/26 14:59:20;;;;;;;12.82;2.55;;;;;;;11.58;91.72;102182.16;5072503;28;20055;-83
2022/04/26 15:01:49;;;;;;;13.07;2.55;;;;;;;11.87;90.05;102183.34;5070651;28;20072;-83
2022/04/26 15:04:17;;;;;;;9.82;2.17;;;;;;;11.81;90.07;102201.81;5072194;28;20041;-83
2022/04/26 15:06:45;;;;;;;12.40;2.83;;;;;;;11.69;90.13;102181.94;5071350;28;20048;-83
2022/04/26 15:17:30;;;;;;;16.60;2.70;;;;;;;11.36;86.45;102168.53;5073040;28;20056;-84
2022/04/26 15:19:57;;;;;;;11.82;2.17;;;;;;;11.06;87.38;102162.06;5070667;28;20433;-83
2022/04/26 15:22:24;;;;;;;11.43;2.17;;;;;;;11.47;87.15;102177.06;5070860;28;20047;-82
2022/04/26 15:24:54;;;;;;;14.30;3.83;;;;;;;11.87;85.82;102201.72;5070659;28;20048;-83
2022/04/26 15:27:20;;;;;;;18.75;4.10;;;;;;;11.53;84.31;102183.97;5067931;28;20087;-82
2022/04/26 15:29:48;;;;;;;10.02;1.98;;;;;;;11.70;84.79;102213.38;5066544;28;20040;-82
2022/04/26 15:32:15;;;;;;;10.38;1.70;;;;;;;12.15;83.02;102204.69;5065330;28;20123;-83
2022/04/26 15:34:42;;;;;;;15.00;2.53;;;;;;;11.47;81.76;102187.56;5058039;28;20049;-83
2022/04/26 15:37:08;;;;;;;8.85;1.98;;;;;;;11.59;82.72;102179.47;5055334;28;20052;-83
2022/04/26 15:39:35;;;;;;;10.68;2.22;;;;;;;11.66;78.28;102176.75;5061609;28;20048;-84
2022/04/26 15:42:03;;;;;;;7.30;2.00;;;;;;;11.61;78.25;102162.84;5068077;28;20040;-84
2022/04/26 15:44:30;;;;;;;12.18;2.22;;;;;;;11.16;76.26;102158.41;5071097;28;20076;-84